createdAt,value
2022-12-22T00:00:00.226Z,8.2
2022-12-22T00:05:00.246Z,8.2
2022-12-22T00:10:00.245Z,8.3
2022-12-22T00:15:00.237Z,8.3
2022-12-22T00:20:00.396Z,8.2
2022-12-22T00:25:00.035Z,8.1
2022-12-22T00:30:00.333Z,8.3
2022-12-22T00:34:59.991Z,8.1
2022-12-22T00:40:00.304Z,8.1
2022-12-22T00:45:00.259Z,8.1
2022-12-22T00:50:00.204Z,8.2
2022-12-22T00:55:00.399Z,8.2
2022-12-22T01:00:00.377Z,8.3
2022-12-22T01:05:00.206Z,8.2
2022-12-22T01:10:00.286Z,8.2
2022-12-22T01:15:00.270Z,8.1
2022-12-22T01:20:00.369Z,8.2
2022-12-22T01:25:00.205Z,8.2
2022-12-22T01:30:00.300Z,8.3
2022-12-22T01:35:00.269Z,8.4
2022-12-22T01:40:00.385Z,8.3
2022-12-22T01:44:59.968Z,8.4
2022-12-22T01:50:00.500Z,8.5
2022-12-22T01:55:00.086Z,8.5
2022-12-22T02:00:00.092Z,8.5
2022-12-22T02:05:01.057Z,8.5
2022-12-22T02:10:00.069Z,8.3
2022-12-22T02:15:02.305Z,8.3
2022-12-22T02:20:00.024Z,8.3
2022-12-22T02:24:59.936Z,8.2
2022-12-22T02:30:00.241Z,8.4
2022-12-22T02:35:00.149Z,8.3
2022-12-22T02:40:00.062Z,8.4
2022-12-22T02:45:00.116Z,8.4
2022-12-22T02:50:00.222Z,8.4
2022-12-22T02:55:00.001Z,8.4
2022-12-22T02:59:59.921Z,8.4
2022-12-22T03:05:00.290Z,8.4
2022-12-22T03:09:59.920Z,8.5
2022-12-22T03:15:00.068Z,8.6
2022-12-22T03:20:00.269Z,8.5
2022-12-22T03:24:59.841Z,8.5
2022-12-22T03:30:00.052Z,8.5
2022-12-22T03:34:59.913Z,8.6
2022-12-22T03:40:00.238Z,8.6
2022-12-22T03:45:00.276Z,8.5
2022-12-22T03:50:00.175Z,8.4
2022-12-22T03:54:59.822Z,8.4
2022-12-22T04:00:00.016Z,8.4
2022-12-22T04:05:00.386Z,8.4
2022-12-22T04:10:00.232Z,8.4
2022-12-22T04:14:59.951Z,8.5
2022-12-22T04:20:00.194Z,8.4
2022-12-22T04:24:59.857Z,8.4
2022-12-22T04:29:59.836Z,8.4
2022-12-22T04:34:59.833Z,8.4
2022-12-22T04:40:00.146Z,8.5
2022-12-22T04:44:59.932Z,8.6
2022-12-22T04:50:00.088Z,8.6
2022-12-22T04:54:59.987Z,8.4
2022-12-22T04:59:59.813Z,8.5
2022-12-22T05:04:59.946Z,8.5
2022-12-22T05:09:59.963Z,8.5
2022-12-22T05:14:59.964Z,8.5
2022-12-22T05:20:00.227Z,8.6
2022-12-22T05:24:59.977Z,8.6
2022-12-22T05:30:00.122Z,8.5
2022-12-22T05:35:00.453Z,8.6
2022-12-22T05:39:59.851Z,8.6
2022-12-22T05:44:59.805Z,8.9
2022-12-22T05:50:00.002Z,8.6
2022-12-22T05:54:59.716Z,8.8
2022-12-22T05:59:59.813Z,8.8
2022-12-22T06:04:59.758Z,8.6
2022-12-22T06:09:59.945Z,8.6
2022-12-22T06:14:59.770Z,8.8
2022-12-22T06:20:00.153Z,8.7
2022-12-22T06:25:00.044Z,8.6
2022-12-22T06:30:00.113Z,8.4
2022-12-22T06:34:59.843Z,8.3
2022-12-22T06:39:59.863Z,8.4
2022-12-22T06:45:00.044Z,8.3
2022-12-22T06:49:59.882Z,8.2
2022-12-22T06:54:59.863Z,8
2022-12-22T07:00:00.553Z,7.8
2022-12-22T07:04:59.993Z,7.6
2022-12-22T07:09:59.732Z,7.8
2022-12-22T07:14:59.853Z,7.6
2022-12-22T07:19:59.857Z,7.4
2022-12-22T07:24:59.796Z,7.6
2022-12-22T07:29:59.683Z,7.4
2022-12-22T07:35:04.973Z,7.3
2022-12-22T07:39:59.722Z,7
2022-12-22T07:44:59.674Z,7
2022-12-22T07:49:59.913Z,7.2
2022-12-22T07:54:59.769Z,7.2
2022-12-22T07:59:59.844Z,7.2
2022-12-22T08:05:00.323Z,7.2
2022-12-22T08:10:00.047Z,7.1
2022-12-22T08:14:59.905Z,7
2022-12-22T08:19:59.665Z,7.2
2022-12-22T08:24:59.714Z,7.1
2022-12-22T08:29:59.935Z,6.9
2022-12-22T08:34:59.693Z,6.9
2022-12-22T08:39:59.973Z,6.9
2022-12-22T08:44:59.951Z,6.6
2022-12-22T08:49:59.818Z,6.3
2022-12-22T08:54:59.994Z,6.3
2022-12-22T08:59:59.721Z,6.3
2022-12-22T09:04:59.926Z,6.3
2022-12-22T09:10:00.226Z,6.5
2022-12-22T09:14:59.974Z,6.6
2022-12-22T09:19:59.887Z,6.3
2022-12-22T09:24:59.549Z,6
2022-12-22T09:29:59.856Z,5.8
2022-12-22T09:34:59.675Z,5.7
2022-12-22T09:39:59.520Z,5.6
2022-12-22T09:44:59.586Z,6
2022-12-22T09:49:59.806Z,5.9
2022-12-22T09:54:59.721Z,5.8
2022-12-22T09:59:59.816Z,5.6
2022-12-22T10:05:05.290Z,5.7
2022-12-22T10:09:59.804Z,5.8
2022-12-22T10:14:59.747Z,6.2
2022-12-22T10:19:59.881Z,6.5
2022-12-22T10:25:00.881Z,6.8
2022-12-22T10:30:22.310Z,7
2022-12-22T10:35:01.735Z,7.2
2022-12-22T10:39:59.723Z,7.4
2022-12-22T10:44:59.967Z,7.7
2022-12-22T10:50:02.030Z,7.9
2022-12-22T10:54:59.563Z,7.9
2022-12-22T10:59:59.580Z,8
2022-12-22T11:04:59.579Z,8
2022-12-22T11:09:59.967Z,8.2
2022-12-22T11:14:59.628Z,8.3
2022-12-22T11:19:59.559Z,8.3
2022-12-22T11:25:06.377Z,8.3
2022-12-22T11:30:03.138Z,8.5
2022-12-22T11:34:59.548Z,8.5
2022-12-22T11:39:59.838Z,8.6
2022-12-22T11:45:06.277Z,8.8
2022-12-22T11:51:01.953Z,9.1
2022-12-22T11:54:59.877Z,9.3
2022-12-22T12:00:02.305Z,9.2
2022-12-22T12:04:59.690Z,8.7
2022-12-22T12:10:05.798Z,8.6
2022-12-22T12:14:59.618Z,8.5
2022-12-22T12:20:06.023Z,7.9
2022-12-22T12:24:59.665Z,7.2
2022-12-22T12:30:28.534Z,7
2022-12-22T12:34:59.594Z,6.6
2022-12-22T12:39:59.698Z,6.4
2022-12-22T12:44:59.911Z,6.2
2022-12-22T12:49:59.536Z,6.4
2022-12-22T12:54:59.560Z,6.1
2022-12-22T12:59:59.766Z,6.1
2022-12-22T13:05:00.606Z,6.2
2022-12-22T13:09:59.414Z,6.2
2022-12-22T13:15:00.010Z,6.3
2022-12-22T13:19:59.491Z,6.3
2022-12-22T13:25:01.131Z,6.6
2022-12-22T13:29:59.521Z,6.7
2022-12-22T13:35:30.403Z,6.6
2022-12-22T13:39:59.369Z,6.8
2022-12-22T13:45:00.017Z,6.8
2022-12-22T13:50:09.046Z,6.8
2022-12-22T13:54:59.459Z,6.9
2022-12-22T13:59:59.459Z,6.8
2022-12-22T14:05:03.275Z,6.9
2022-12-22T14:09:59.451Z,7
2022-12-22T14:15:00.524Z,7
2022-12-22T14:19:59.590Z,7.1
2022-12-22T14:25:02.349Z,7.1
2022-12-22T14:30:02.697Z,7.2
2022-12-22T14:34:59.605Z,7.1
2022-12-22T14:39:59.692Z,7.4
2022-12-22T14:44:59.543Z,7.1
2022-12-22T14:49:59.386Z,7.3
2022-12-22T14:54:59.476Z,7.3
2022-12-22T15:00:00.965Z,7.5
2022-12-22T15:04:59.347Z,7.2
2022-12-22T15:10:16.041Z,7.3
2022-12-22T15:14:59.835Z,7.4
2022-12-22T15:19:59.666Z,7.7
2022-12-22T15:24:59.258Z,7.6
2022-12-22T15:29:59.675Z,7.5
2022-12-22T15:34:59.532Z,7.6
2022-12-22T15:39:59.318Z,7.6
2022-12-22T15:44:59.323Z,7.7
2022-12-22T15:49:59.492Z,7.6
2022-12-22T15:54:59.332Z,7.7
2022-12-22T15:59:59.296Z,7.7
2022-12-22T16:04:59.264Z,7.6
2022-12-22T16:09:59.446Z,7.8
2022-12-22T16:14:59.567Z,7.7
2022-12-22T16:19:59.366Z,7.7
2022-12-22T16:24:59.534Z,7.4
2022-12-22T16:29:59.366Z,7.6
2022-12-22T16:34:59.427Z,7.6
2022-12-22T16:39:59.625Z,7.7
2022-12-22T16:44:59.286Z,7.6
2022-12-22T16:49:59.498Z,7.7
2022-12-22T16:54:59.470Z,7.5
2022-12-22T16:59:59.389Z,7.6
2022-12-22T17:04:59.560Z,7.6
2022-12-22T17:09:59.262Z,7.8
2022-12-22T17:14:59.484Z,7.6
2022-12-22T17:19:59.436Z,7.5
2022-12-22T17:25:01.361Z,7.7
2022-12-22T17:29:59.250Z,7.8
2022-12-22T17:34:59.490Z,7.9
2022-12-22T17:39:59.574Z,7.9
2022-12-22T17:44:59.525Z,7.9
2022-12-22T17:49:59.360Z,7.9
2022-12-22T17:54:59.384Z,7.8
2022-12-22T17:59:59.398Z,7.6
2022-12-22T18:04:59.785Z,7.8
2022-12-22T18:09:59.523Z,7.9
2022-12-22T18:14:59.117Z,8
2022-12-22T18:19:59.271Z,7.7
2022-12-22T18:24:59.282Z,8
2022-12-22T18:29:59.434Z,7.9
2022-12-22T18:35:00.547Z,8
2022-12-22T18:40:00.440Z,8.2
2022-12-22T18:45:00.747Z,8
2022-12-22T18:50:00.537Z,8.1
2022-12-22T18:55:00.480Z,8.2
2022-12-22T19:00:00.495Z,8.1
2022-12-22T19:05:01.364Z,8.4
2022-12-22T19:10:00.635Z,8.4
2022-12-22T19:15:00.451Z,8.5
2022-12-22T19:20:00.515Z,8.5
2022-12-22T19:25:00.505Z,8.6
2022-12-22T19:30:03.634Z,8.6
2022-12-22T19:35:00.536Z,8.6
2022-12-22T19:40:00.827Z,8.8
2022-12-22T19:45:04.005Z,8.9
2022-12-22T19:50:00.405Z,8.8
2022-12-22T19:55:00.436Z,8.8
2022-12-22T20:00:00.569Z,8.8
2022-12-22T20:05:00.398Z,8.9
2022-12-22T20:10:00.661Z,8.9
2022-12-22T20:15:00.330Z,8.8
2022-12-22T20:20:00.556Z,8.8
2022-12-22T20:25:00.831Z,8.8
2022-12-22T20:30:00.352Z,8.8
2022-12-22T20:35:00.439Z,8.8
2022-12-22T20:40:00.336Z,8.9
2022-12-22T20:45:03.922Z,8.9
2022-12-22T20:50:00.549Z,9
2022-12-22T20:55:00.301Z,9.1
2022-12-22T21:00:00.527Z,9.1
2022-12-22T21:05:00.393Z,9.1
2022-12-22T21:10:00.358Z,9
2022-12-22T21:15:00.722Z,9
2022-12-22T21:20:00.553Z,9.1
2022-12-22T21:25:00.443Z,9.1
2022-12-22T21:30:00.805Z,9.1
2022-12-22T21:35:06.025Z,9.1
2022-12-22T21:40:00.429Z,9.2
2022-12-22T21:45:00.664Z,9
2022-12-22T21:50:00.457Z,9.1
2022-12-22T21:55:00.348Z,9.2
2022-12-22T22:00:00.801Z,8.9
2022-12-22T22:05:00.365Z,9.2
2022-12-22T22:10:00.443Z,9.1
2022-12-22T22:15:00.458Z,9.2
2022-12-22T22:20:00.382Z,9.2
2022-12-22T22:25:00.286Z,9.1
2022-12-22T22:30:00.428Z,9.2
2022-12-22T22:35:00.289Z,9.1
2022-12-22T22:40:00.436Z,9.1
2022-12-22T22:45:00.766Z,9.2
2022-12-22T22:50:00.917Z,9.2
2022-12-22T22:55:00.192Z,9.3
2022-12-22T23:00:00.120Z,9.4
2022-12-22T23:05:00.413Z,9.3
2022-12-22T23:10:00.449Z,9.2
2022-12-22T23:15:00.148Z,9.1
2022-12-22T23:20:00.164Z,8.9
2022-12-22T23:25:00.202Z,8.8
2022-12-22T23:30:00.355Z,9
2022-12-22T23:35:00.155Z,8.9
2022-12-22T23:40:25.102Z,9.1
2022-12-22T23:45:00.004Z,9
2022-12-22T23:50:00.174Z,9.1
2022-12-22T23:55:00.452Z,9.2
